Flight Track Log - Related Links

Times and Time Zones

All times are in EDT time to prevent confusion due to time zone crossing. See the SWA706 flight status page for this flight to view local times or setup timezone preferences in your user account.

Time Position Orientation Groundspeed Altitude Reporting Facility
EDT Latitude Longitude Course Direction KTS MPH feet Rate Location/Type
Sat 09:27:03 PM 37.7614 -122.2969 314° West 212 244 2,700  Level Oakland Center
Sat 09:28:03 PM 37.8264 -122.2622 23° Northeast 269 310 5,900 3,322 Climbing Oakland Center
Sat 09:29:04 PM 37.8897 -122.1981 39° Northeast 288 331 9,400 2,656 Climbing Oakland Center
Sat 09:30:05 PM 37.9686 -122.1569 22° Northeast 319 367 11,300 2,459 Climbing Oakland Center
Sat 09:31:06 PM 38.0597 -122.1203 18° North 343 395 14,400 2,508 Climbing Oakland Center
Sat 09:32:07 PM 38.1569 -122.0811 18° North 360 414 16,400 2,132 Climbing Oakland Center
Sat 09:33:07 PM 38.2617 -122.0375 18° North 388 447 18,700 2,231 Climbing Oakland Center
Sat 09:34:08 PM 38.3692 -121.9942 18° North 402 463 20,900 2,262 Climbing Oakland Center
Sat 09:35:09 PM 38.5019 -121.9406 18° North 410 472 23,300 2,066 Climbing Oakland Center
Sat 09:36:10 PM 38.6175 -121.8942 17° North 427 491 25,100 1,672 Climbing Oakland Center
Sat 09:37:11 PM 38.7400 -121.8433 18° North 446 513 26,700 1,587 Climbing Oakland Center
Sat 09:38:11 PM 38.8614 -121.7933 18° North 454 522 28,300 1,884 Climbing Oakland Center
Sat 09:39:12 PM 38.9842 -121.7419 18° North 459 528 30,500 1,721 Climbing Oakland Center
Sat 09:40:13 PM 39.1031 -121.6922 18° North 452 520 31,800 1,279 Climbing Oakland Center
Sat 09:41:14 PM 39.2233 -121.6422 18° North 452 520 33,100 1,091 Climbing Oakland Center
Sat 09:42:14 PM 39.3472 -121.5917 18° North 459 528 34,000 446 Climbing Oakland Center
Sat 09:43:15 PM 39.4714 -121.5400 18° North 464 534 34,000  Level Oakland Center
Sat 09:44:16 PM 39.5850 -121.4917 18° North 465 535 34,000  Level Oakland Center
Sat 09:45:17 PM 39.7061 -121.4417 18° North 462 532 34,000  Level Oakland Center
Sat 09:46:18 PM 39.8289 -121.3892 18° North 465 535 34,000  Level Oakland Center
Sat 09:47:18 PM 39.9500 -121.3364 18° North 464 534 34,000  Level Oakland Center
Sat 09:48:19 PM 40.0964 -121.2739 18° North 464 534 34,000  Level Oakland Center
Sat 09:49:20 PM 40.2181 -121.2225 18° North 463 533 34,000  Level Oakland Center
Sat 09:50:21 PM 40.3383 -121.1717 18° North 459 528 34,000  Level Oakland Center
Sat 09:51:21 PM 40.4572 -121.1175 19° North 454 522 34,000  Level Oakland Center
Sat 09:52:10 PM 40.5564 -121.0744 18° North 459 528 34,000  Level Seattle Center
Sat 09:53:11 PM 40.6806 -121.0200 18° North 457 526 34,000  Level Seattle Center
Sat 09:54:12 PM 40.8036 -120.9669 18° North 464 534 34,000  Level Seattle Center
Sat 09:55:12 PM 40.9300 -120.9119 18° North 475 547 34,000  Level Seattle Center
Sat 09:56:13 PM 41.0561 -120.8558 19° North 479 551 34,000  Level Seattle Center
Sat 09:57:14 PM 41.1875 -120.7986 18° North 492 566 34,000  Level Seattle Center
Sat 09:58:14 PM 41.3125 -120.7444 18° North 493 567 34,000  Level Seattle Center
Sat 09:59:15 PM 41.4478 -120.6828 19° North 498 573 34,000 984 Level Seattle Center
Sat 10:00:16 PM 41.5731 -120.6253 19° North 483 556 36,000 992 Climbing Seattle Center
Sat 10:01:16 PM 41.6933 -120.5714 18° North 462 532 36,000  Level Seattle Center
Sat 10:02:17 PM 41.8103 -120.5192 18° North 451 519 36,000  Level Seattle Center
Sat 10:03:18 PM 41.9300 -120.4653 19° North 455 524 36,000  Level Seattle Center
Sat 10:04:18 PM 42.0742 -120.4000 19° North 455 524 36,000  Level Seattle Center
Sat 10:05:19 PM 42.1931 -120.3456 19° North 454 522 36,000  Level Seattle Center
Sat 10:06:19 PM 42.3147 -120.2906 18° North 462 532 36,000  Level Seattle Center
Sat 10:07:20 PM 42.4364 -120.2344 19° North 463 533 36,000  Level Seattle Center
Sat 10:08:21 PM 42.5547 -120.1775 20° North 456 525 36,000  Level Seattle Center
Sat 10:09:21 PM 42.6739 -120.1228 19° North 452 520 36,000  Level Seattle Center
Sat 10:10:22 PM 42.7950 -120.0661 19° North 458 527 36,000  Level Seattle Center
Sat 10:11:23 PM 42.9147 -120.0108 19° North 458 527 36,000  Level Seattle Center
Sat 10:12:23 PM 43.0367 -119.9522 19° North 463 533 36,000  Level Seattle Center
Sat 10:13:24 PM 43.1619 -119.8939 19° North 473 544 36,000  Level Seattle Center
Sat 10:14:25 PM 43.2881 -119.8350 19° North 478 550 36,000  Level Seattle Center
Sat 10:15:25 PM 43.4219 -119.7719 19° North 478 550 36,000  Level Seattle Center
Sat 10:16:26 PM 43.5447 -119.7122 19° North 470 541 36,000  Level Seattle Center
Sat 10:17:26 PM 43.6694 -119.6511 20° North 474 545 36,000  Level Seattle Center
Sat 10:18:27 PM 43.7950 -119.5889 20° North 480 552 36,000  Level Seattle Center
Sat 10:19:28 PM 43.9200 -119.5286 19° North 479 551 36,000  Level Seattle Center
Sat 10:20:28 PM 44.0425 -119.4681 20° North 472 543 36,000  Level Seattle Center
Sat 10:21:29 PM 44.1656 -119.4072 20° North 471 542 36,000  Level Seattle Center
Sat 10:22:29 PM 44.2903 -119.3469 19° North 474 545 36,000  Level Seattle Center
Sat 10:23:30 PM 44.4144 -119.2858 19° North 478 550 36,000  Level Seattle Center
Sat 10:24:31 PM 44.5378 -119.2239 20° North 476 548 36,000  Level Seattle Center
Sat 10:25:31 PM 44.6850 -119.1514 19° North 472 543 36,000  Level Seattle Center
Sat 10:26:32 PM 44.8086 -119.0894 20° North 474 545 36,000  Level Seattle Center
Sat 10:27:32 PM 44.9344 -119.0269 19° North 481 554 36,000  Level Seattle Center
Sat 10:28:33 PM 45.0608 -118.9642 19° North 484 557 36,000  Level Seattle Center
Sat 10:29:34 PM 45.1819 -118.9008 20° North 473 544 36,000  Level Seattle Center
Sat 10:30:34 PM 45.3017 -118.8383 20° North 463 533 36,000  Level Seattle Center
Sat 10:31:35 PM 45.4244 -118.7750 20° North 468 539 36,000  Level Seattle Center
Sat 10:32:35 PM 45.5469 -118.7125 20° North 470 541 36,000  Level Seattle Center
Sat 10:33:36 PM 45.6656 -118.6503 20° North 462 532 36,000  Level Seattle Center
Sat 10:34:37 PM 45.7842 -118.5892 20° North 458 527 36,000 -50 Level Seattle Center
Sat 10:35:37 PM 45.9036 -118.5269 20° North 458 527 35,900 -1,289 Descending Seattle Center
Sat 10:36:38 PM 46.0253 -118.4672 19° North 476 548 33,400 -2,727 Descending Seattle Center
Sat 10:37:38 PM 46.1494 -118.4031 20° North 478 550 30,400 -2,727 Descending Seattle Center
Sat 10:38:39 PM 46.2717 -118.3397 20° North 472 543 27,900 -2,656 Descending Seattle Center
Sat 10:39:40 PM 46.4092 -118.2625 21° North 451 519 25,000 -2,529 Descending Seattle Center
Sat 10:40:40 PM 46.5178 -118.2039 20° North 428 493 22,800 -2,033 Descending Seattle Center
Sat 10:41:41 PM 46.6172 -118.1428 23° Northeast 403 464 20,900 -1,884 Descending Seattle Center
Sat 10:42:41 PM 46.7072 -118.0769 27° Northeast 375 432 19,000 -1,835 Descending Seattle Center
Sat 10:43:42 PM 46.7944 -118.0161 26° Northeast 353 406 17,200 -1,636 Descending Seattle Center
Sat 10:44:42 PM 46.8853 -117.9506 26° Northeast 367 422 15,700 -1,190 Descending Seattle Center
Sat 10:45:43 PM 46.9769 -117.8847 26° Northeast 365 420 14,800 -885 Descending Seattle Center
Sat 10:46:44 PM 47.0661 -117.8236 25° Northeast 354 407 13,900 -992 Descending Seattle Center
Sat 10:47:44 PM 47.1467 -117.7672 25° Northeast 322 371 12,800 -1,041 Descending Seattle Center
Sat 10:48:45 PM 47.2231 -117.7122 26° Northeast 308 354 11,800 -992 Descending Seattle Center
Sat 10:49:45 PM 47.2992 -117.6558 27° Northeast 307 353 10,800 -1,289 Descending Seattle Center
Sat 10:50:46 PM 47.3733 -117.6042 25° Northeast 296 341 9,200 -1,686 Descending Seattle Center
Sat 10:51:46 PM 47.4461 -117.5508 26° Northeast 292 336 7,400 -1,636 Descending Seattle Center
Sat 10:52:47 PM 47.5142 -117.4831 34° Northeast 297 342 5,900 -1,041 Descending Seattle Center
Sat 10:53:47 PM 47.5717 -117.4081 41° Northeast 273 314 5,300 -694 Descending Seattle Center
Sat 10:54:48 PM 47.6292 -117.4008 North 222 255 4,500 -793 Descending Seattle Center
Sat 10:55:48 PM 47.6675 -117.4411 325° Northwest 161 185 3,700 -744 Descending Seattle Center
Sat 10:56:49 PM 47.6567 -117.4819 249° West 111 128 3,000 -694 Descending Seattle Center
Sat 10:57:49 PM 47.6328 -117.5164 224° Southwest 119 137 2,300 -390 Descending Seattle Center
Sat 10:58:52 PM 47.6222 -117.5311 223° Southwest 69 79 2,200 -95 Descending Seattle Center
Sat 11:00:00 PM 47.6167 -117.5333 270° West  Level FlightAware Approximate

Login

Don't have an account? Register now (free) for customized features, flight alerts, and more!